Current Weather

Keetmanshoop

Keetmanshoop, Namibia (FYKT)

Report from: Sunday, February 25, 2024 3:00 AM CAT
Current time: Sunday, February 25, 2024 4:10 AM CAT

Nearby weather – Weather history – Daily summaries
Weather forecast

Temperature18.0°C (64.4°F)
Dew point6.0°C (42.8°F)
Winds 12 kts (6.2 m/s, 13.8 mph) Southwest (220°)
Altimeter30.09 in.Hg (1019 mB)
Relative humidity45 %
Density altitude296 ft. (90 m)
Remarks Fully automated report
Raw dataFYKT 250100Z AUTO 22012KT //// // ////// 18/06 Q1019
An error has occurred. This application may no longer respond until reloaded. Reload 🗙